Terminal Aerodrome Forecast
Issued by NWS

Home | Current Version | Previous Version | Text Only | Print | Product List | Glossary On
Versions: 1 2 3 4 5 6 7 8 9 10 11 12 13 14 15 16 17 18 19
000
FTUS46 KSTO 172300
TAFRBL
TAF
KRBL 172323Z 1800/1824 16012KT 6SM -SHRA OVC015
     FM180400 16008KT 6SM -RA BR SCT012 OVC025
      TEMPO 1804/1808 3SM RA OVC012
     FM181400 16005KT 6SM BR VCSH OVC008
     FM182000 16012KT P6SM BKN050=

USA.gov is the U.S. government's official web portal to all federal, state and local government web resources and services.